National Weather Service Raw Text Product

Displaying AFOS PIL: TAFMCW Received: 2018-01-03 16:48 UTC


315 
FTUS43 KDMX 031648 AAB
TAFMCW
TAF AMD
KMCW 031648Z 0317/0412 32014G22KT P6SM SKC
     FM032300 32010G14KT P6SM SKC
     FM040600 34006KT P6SM SKC=